createdAt,value
2018-04-15T00:01:08.744Z,51.20
2018-04-15T00:03:37.873Z,55.08
2018-04-15T00:06:06.252Z,51.75
2018-04-15T00:08:34.638Z,52.83
2018-04-15T00:11:03.003Z,53.13
2018-04-15T00:13:31.501Z,51.85
2018-04-15T00:15:59.887Z,55.42
2018-04-15T00:18:28.420Z,56.80
2018-04-15T00:20:56.936Z,55.47
2018-04-15T00:23:25.383Z,52.85
2018-04-15T00:25:53.900Z,56.53
2018-04-15T00:28:22.756Z,56.13
2018-04-15T00:30:51.150Z,55.78
2018-04-15T00:33:19.631Z,61.88
2018-04-15T00:35:48.176Z,57.45
2018-04-15T00:38:16.509Z,53.08
2018-04-15T00:40:44.896Z,58.65
2018-04-15T00:43:13.985Z,53.53
2018-04-15T00:45:42.387Z,50.80
2018-04-15T00:48:10.755Z,52.92
2018-04-15T00:50:39.811Z,54.08
2018-04-15T00:53:08.219Z,55.63
2018-04-15T00:55:36.598Z,54.65
2018-04-15T00:58:05.361Z,52.58
2018-04-15T01:00:33.955Z,52.20
2018-04-15T01:03:02.393Z,54.78
2018-04-15T01:05:30.920Z,59.42
2018-04-15T01:07:59.373Z,57.38
2018-04-15T01:10:27.771Z,51.85
2018-04-15T01:12:56.472Z,52.70
2018-04-15T01:15:24.884Z,56.20
2018-04-15T01:17:53.287Z,55.75
2018-04-15T01:20:22.171Z,56.30
2018-04-15T01:22:50.635Z,54.78
2018-04-15T01:25:19.039Z,52.72
2018-04-15T01:27:49.165Z,55.60
2018-04-15T01:30:17.549Z,57.72
2018-04-15T01:32:45.925Z,54.92
2018-04-15T01:35:14.337Z,54.95
2018-04-15T01:37:42.679Z,56.95
2018-04-15T01:40:11.060Z,56.65
2018-04-15T01:42:39.468Z,53.90
2018-04-15T01:45:07.890Z,54.47
2018-04-15T01:47:36.284Z,55.45
2018-04-15T01:50:05.285Z,57.13
2018-04-15T01:52:33.914Z,54.65
2018-04-15T01:55:02.325Z,56.92
2018-04-15T01:57:30.829Z,52.60
2018-04-15T01:59:59.252Z,56.35
2018-04-15T02:02:29.462Z,56.55
2018-04-15T02:04:58.688Z,54.30
2018-04-15T02:07:27.140Z,57.30
2018-04-15T02:09:55.733Z,56.90
2018-04-15T02:12:25.029Z,56.92
2018-04-15T02:14:53.517Z,55.40
2018-04-15T02:17:21.924Z,56.17
2018-04-15T02:19:51.886Z,52.38
2018-04-15T02:22:20.273Z,52.88
2018-04-15T02:24:49.394Z,52.35
2018-04-15T02:27:17.864Z,55.70
2018-04-15T02:29:46.327Z,53.55
2018-04-15T02:32:14.903Z,56.63
2018-04-15T02:34:43.305Z,54.55
2018-04-15T02:37:12.637Z,53.87
2018-04-15T02:39:40.991Z,56.13
2018-04-15T02:42:09.387Z,54.22
2018-04-15T02:44:37.752Z,53.53
2018-04-15T02:47:06.132Z,54.22
2018-04-15T02:49:34.534Z,57.10
2018-04-15T02:52:02.920Z,53.33
2018-04-15T02:54:32.272Z,54.00
2018-04-15T02:57:00.706Z,54.95
2018-04-15T02:59:29.143Z,55.25
2018-04-15T03:01:57.580Z,56.58
2018-04-15T03:04:26.060Z,54.35
2018-04-15T03:06:54.746Z,57.03
2018-04-15T03:09:23.179Z,55.12
2018-04-15T03:11:51.643Z,54.30
2018-04-15T03:14:20.188Z,57.25
2018-04-15T03:16:48.606Z,53.72
2018-04-15T03:19:17.491Z,53.92
2018-04-15T03:21:45.886Z,53.45
2018-04-15T03:24:14.352Z,50.78
2018-04-15T03:26:42.808Z,50.72
2018-04-15T03:29:11.171Z,53.90
2018-04-15T03:31:41.450Z,52.00
2018-04-15T03:34:10.110Z,51.88
2018-04-15T03:36:38.494Z,50.70
2018-04-15T03:39:06.885Z,50.45
2018-04-15T03:41:35.395Z,50.40
2018-04-15T03:44:03.745Z,49.45
2018-04-15T03:46:32.230Z,49.53
2018-04-15T03:49:01.036Z,47.62
2018-04-15T03:51:29.408Z,51.40
2018-04-15T03:53:57.776Z,54.13
2018-04-15T03:56:26.214Z,48.92
2018-04-15T03:58:54.634Z,48.40
2018-04-15T04:01:23.073Z,48.97
2018-04-15T04:03:53.499Z,50.00
2018-04-15T04:06:21.916Z,48.40
2018-04-15T04:08:50.362Z,49.92
2018-04-15T04:11:19.251Z,49.47
2018-04-15T04:13:47.687Z,50.58
2018-04-15T04:16:16.424Z,50.72
2018-04-15T04:18:57.038Z,46.92
2018-04-15T04:21:37.289Z,48.55
2018-04-15T04:24:17.802Z,52.65
2018-04-15T04:26:46.176Z,55.15
2018-04-15T04:29:14.970Z,51.83
2018-04-15T04:31:43.483Z,54.95
2018-04-15T04:34:11.849Z,51.58
2018-04-15T04:36:40.374Z,49.10
2018-04-15T04:39:08.897Z,52.75
2018-04-15T04:41:37.273Z,51.42
2018-04-15T04:44:05.621Z,47.62
2018-04-15T04:46:35.921Z,49.40
2018-04-15T04:49:04.271Z,51.20
2018-04-15T04:51:32.636Z,49.55
2018-04-15T04:54:01.107Z,50.55
2018-04-15T04:56:29.604Z,51.13
2018-04-15T04:58:58.218Z,47.50
2018-04-15T05:01:27.036Z,50.00
2018-04-15T05:03:55.698Z,47.72
2018-04-15T05:06:24.106Z,47.13
2018-04-15T05:08:52.563Z,44.08
2018-04-15T05:11:21.044Z,45.83
2018-04-15T05:13:49.443Z,47.38
2018-04-15T05:16:17.936Z,45.88
2018-04-15T05:18:46.297Z,41.50
2018-04-15T05:21:14.675Z,44.08
2018-04-15T05:23:43.557Z,41.45
2018-04-15T05:26:11.909Z,41.22
2018-04-15T05:28:40.286Z,43.10
2018-04-15T05:31:08.663Z,41.17
2018-04-15T05:33:37.047Z,41.70
2018-04-15T05:36:05.541Z,43.67
2018-04-15T05:38:33.938Z,39.50
2018-04-15T05:41:02.325Z,39.47
2018-04-15T05:43:30.704Z,41.78
2018-04-15T05:45:59.140Z,41.78
2018-04-15T05:48:27.525Z,39.67
2018-04-15T05:50:56.029Z,39.20
2018-04-15T05:53:24.435Z,40.65
2018-04-15T05:55:52.966Z,39.83
2018-04-15T05:58:21.383Z,38.17
2018-04-15T06:00:50.059Z,39.08
2018-04-15T06:03:18.509Z,38.30
2018-04-15T06:05:46.864Z,34.58
2018-04-15T06:08:15.374Z,36.40
2018-04-15T06:10:43.777Z,32.60
2018-04-15T06:13:12.132Z,33.00
2018-04-15T06:15:41.312Z,33.97
2018-04-15T06:18:09.678Z,33.03
2018-04-15T06:20:38.058Z,33.80
2018-04-15T06:23:06.533Z,29.92
2018-04-15T06:25:34.948Z,29.65
2018-04-15T06:28:03.310Z,30.92
2018-04-15T06:30:31.792Z,31.00
2018-04-15T06:33:00.244Z,31.17
2018-04-15T06:35:28.618Z,28.33
2018-04-15T06:37:57.042Z,28.73
2018-04-15T06:40:25.628Z,27.30
2018-04-15T06:42:54.145Z,29.07
2018-04-15T06:45:23.484Z,28.17
2018-04-15T06:47:51.910Z,27.30
2018-04-15T06:50:20.304Z,27.73
2018-04-15T06:52:48.784Z,25.40
2018-04-15T06:55:17.147Z,27.10
2018-04-15T06:57:45.510Z,27.17
2018-04-15T07:00:13.888Z,25.17
2018-04-15T07:02:42.266Z,26.10
2018-04-15T07:05:10.632Z,29.17
2018-04-15T07:07:39.020Z,26.53
2018-04-15T07:10:07.386Z,26.60
2018-04-15T07:12:35.853Z,26.80
2018-04-15T07:15:04.705Z,24.67
2018-04-15T07:17:33.147Z,25.80
2018-04-15T07:20:01.544Z,26.20
2018-04-15T07:22:30.461Z,26.40
2018-04-15T07:24:58.888Z,25.63
2018-04-15T07:27:27.337Z,27.63
2018-04-15T07:29:56.530Z,26.93
2018-04-15T07:32:25.173Z,27.90
2018-04-15T07:34:53.598Z,25.23
2018-04-15T07:37:22.191Z,24.00
2018-04-15T07:39:50.602Z,21.80
2018-04-15T07:42:18.990Z,23.93
2018-04-15T07:44:48.293Z,22.90
2018-04-15T07:47:16.651Z,23.40
2018-04-15T07:49:45.038Z,22.37
2018-04-15T07:52:13.471Z,23.83
2018-04-15T07:54:41.870Z,24.10
2018-04-15T07:57:10.221Z,23.50
2018-04-15T07:59:38.729Z,23.63
2018-04-15T08:02:07.087Z,24.67
2018-04-15T08:04:35.468Z,24.13
2018-04-15T08:07:06.019Z,23.90
2018-04-15T08:09:34.416Z,20.93
2018-04-15T08:12:02.776Z,22.17
2018-04-15T08:14:31.172Z,22.20
2018-04-15T08:16:59.800Z,21.37
2018-04-15T08:19:28.180Z,19.60
2018-04-15T08:21:56.991Z,22.73
2018-04-15T08:24:25.488Z,24.30
2018-04-15T08:26:53.957Z,18.97
2018-04-15T08:29:22.812Z,20.93
2018-04-15T08:31:51.311Z,20.37
2018-04-15T08:34:24.536Z,19.47
2018-04-15T08:36:53.069Z,18.13
2018-04-15T08:39:21.552Z,20.90
2018-04-15T08:41:49.976Z,22.93
2018-04-15T08:44:18.558Z,19.70
2018-04-15T08:46:46.983Z,22.90
2018-04-15T08:49:15.390Z,20.70
2018-04-15T08:51:43.793Z,19.23
2018-04-15T08:54:12.164Z,23.30
2018-04-15T08:56:40.688Z,22.83
2018-04-15T08:59:09.129Z,21.10
2018-04-15T09:01:37.495Z,21.20
2018-04-15T09:04:08.954Z,20.43
2018-04-15T09:06:37.348Z,21.97
2018-04-15T09:09:05.884Z,23.13
2018-04-15T09:11:34.584Z,21.50
2018-04-15T09:14:02.953Z,23.23
2018-04-15T09:16:31.376Z,25.07
2018-04-15T09:19:00.875Z,22.70
2018-04-15T09:21:29.396Z,21.53
2018-04-15T09:23:58.161Z,22.50
2018-04-15T09:26:26.628Z,23.17
2018-04-15T09:28:55.142Z,22.57
2018-04-15T09:31:23.542Z,22.73
2018-04-15T09:33:52.392Z,22.33
2018-04-15T09:36:20.817Z,23.17
2018-04-15T09:38:49.286Z,22.60
2018-04-15T09:41:18.821Z,22.60
2018-04-15T09:43:47.187Z,22.67
2018-04-15T09:46:15.616Z,24.30
2018-04-15T09:48:44.936Z,24.83
2018-04-15T09:51:13.298Z,24.03
2018-04-15T09:53:41.675Z,26.03
2018-04-15T09:56:10.514Z,25.87
2018-04-15T09:58:38.958Z,25.93
2018-04-15T10:01:07.344Z,25.77
2018-04-15T10:03:36.607Z,25.17
2018-04-15T10:06:04.950Z,28.73
2018-04-15T10:08:33.291Z,24.80
2018-04-15T10:11:02.085Z,25.30
2018-04-15T10:13:30.644Z,26.20
2018-04-15T10:15:59.922Z,23.83
2018-04-15T10:18:28.731Z,24.30
2018-04-15T10:20:57.336Z,27.47
2018-04-15T10:23:25.762Z,25.50
2018-04-15T10:25:54.592Z,25.87
2018-04-15T10:28:23.028Z,26.43
2018-04-15T10:30:51.757Z,27.27
2018-04-15T10:33:20.815Z,27.20
2018-04-15T10:35:49.482Z,29.43
2018-04-15T10:38:18.188Z,28.20
2018-04-15T10:40:46.640Z,27.40
2018-04-15T10:43:15.002Z,29.97
2018-04-15T10:45:43.483Z,29.20
2018-04-15T10:48:11.955Z,31.97
2018-04-15T10:50:40.308Z,29.50
2018-04-15T10:53:08.705Z,36.07
2018-04-15T10:55:38.046Z,33.30
2018-04-15T10:58:07.440Z,32.80
2018-04-15T11:00:35.947Z,28.67
2018-04-15T11:03:04.447Z,34.83
2018-04-15T11:05:32.812Z,31.77
2018-04-15T11:08:01.493Z,29.10
2018-04-15T11:10:30.336Z,31.20
2018-04-15T11:12:59.134Z,32.80
2018-04-15T11:15:27.678Z,35.70
2018-04-15T11:17:56.634Z,31.90
2018-04-15T11:20:27.971Z,32.57
2018-04-15T11:22:56.606Z,36.50
2018-04-15T11:25:25.425Z,31.67
2018-04-15T11:27:54.025Z,33.90
2018-04-15T11:30:22.481Z,35.77
2018-04-15T11:32:52.707Z,34.20
2018-04-15T11:35:21.291Z,40.40
2018-04-15T11:37:49.733Z,35.50
2018-04-15T11:40:18.438Z,37.60
2018-04-15T11:42:46.797Z,34.30
2018-04-15T11:45:15.300Z,36.33
2018-04-15T11:47:43.660Z,38.30
2018-04-15T11:50:12.033Z,35.90
2018-04-15T11:52:40.435Z,37.97
2018-04-15T11:55:08.841Z,38.63
2018-04-15T11:57:37.440Z,40.37
2018-04-15T12:00:05.967Z,37.70
2018-04-15T12:02:34.344Z,39.83
2018-04-15T12:05:02.838Z,39.23
2018-04-15T12:07:31.363Z,38.53
2018-04-15T12:10:00.079Z,40.20
2018-04-15T12:12:28.569Z,41.90
2018-04-15T12:14:57.014Z,39.07
2018-04-15T12:17:26.168Z,38.47
2018-04-15T12:19:54.715Z,39.63
2018-04-15T12:22:23.170Z,35.37
2018-04-15T12:24:52.981Z,37.70
2018-04-15T12:27:21.548Z,39.80
2018-04-15T12:29:49.972Z,43.00
2018-04-15T12:32:18.431Z,40.30
2018-04-15T12:34:47.116Z,40.43
2018-04-15T12:37:15.635Z,41.20
2018-04-15T12:39:44.088Z,41.07
2018-04-15T12:42:12.445Z,41.97
2018-04-15T12:44:40.798Z,41.60
2018-04-15T12:47:09.187Z,40.90
2018-04-15T12:49:37.545Z,37.37
2018-04-15T12:52:05.917Z,40.70
2018-04-15T12:54:34.580Z,40.97
2018-04-15T12:57:03.020Z,40.10
2018-04-15T12:59:31.413Z,39.80
2018-04-15T13:02:00.022Z,38.90
2018-04-15T13:04:28.397Z,37.03
2018-04-15T13:06:56.857Z,36.37
2018-04-15T13:09:25.692Z,40.77
2018-04-15T13:11:54.312Z,40.15
2018-04-15T13:14:22.775Z,40.83
2018-04-15T13:16:51.194Z,40.17
2018-04-15T13:19:19.788Z,42.97
2018-04-15T13:21:48.349Z,35.63
2018-04-15T13:24:17.343Z,40.03
2018-04-15T13:26:45.705Z,39.07
2018-04-15T13:29:14.080Z,36.00
2018-04-15T13:31:42.464Z,41.90
2018-04-15T13:34:10.846Z,40.70
2018-04-15T13:36:39.248Z,42.80
2018-04-15T13:39:07.649Z,39.97
2018-04-15T13:41:36.142Z,41.80
2018-04-15T13:44:04.546Z,41.83
2018-04-15T13:46:32.929Z,40.27
2018-04-15T13:49:01.368Z,39.70
2018-04-15T13:51:29.967Z,38.80
2018-04-15T13:53:58.522Z,38.50
2018-04-15T13:56:26.897Z,38.43
2018-04-15T13:58:55.401Z,38.27
2018-04-15T14:01:24.077Z,40.10
2018-04-15T14:03:52.853Z,38.90
2018-04-15T14:06:21.361Z,37.73
2018-04-15T14:08:49.836Z,37.73
2018-04-15T14:11:18.380Z,39.73
2018-04-15T14:13:46.771Z,39.33
2018-04-15T14:16:15.240Z,37.20
2018-04-15T14:18:43.645Z,35.63
2018-04-15T14:21:12.029Z,36.30
2018-04-15T14:23:41.148Z,35.93
2018-04-15T14:26:09.508Z,36.10
2018-04-15T14:28:37.855Z,37.00
2018-04-15T14:31:06.510Z,39.30
2018-04-15T14:33:34.892Z,38.73
2018-04-15T14:36:03.263Z,37.27
2018-04-15T14:38:32.136Z,36.50
2018-04-15T14:41:00.577Z,34.77
2018-04-15T14:43:29.080Z,34.80
2018-04-15T14:45:57.551Z,37.33
2018-04-15T14:48:26.211Z,37.50
2018-04-15T14:50:54.583Z,34.40
2018-04-15T14:53:23.542Z,35.03
2018-04-15T14:55:52.137Z,33.77
2018-04-15T14:58:20.829Z,36.50
2018-04-15T15:00:49.572Z,32.60
2018-04-15T15:03:18.020Z,43.20
2018-04-15T15:05:46.455Z,43.87
2018-04-15T15:08:14.867Z,37.40
2018-04-15T15:10:43.205Z,40.50
2018-04-15T15:13:11.589Z,38.37
2018-04-15T15:15:40.958Z,36.77
2018-04-15T15:18:09.488Z,39.63
2018-04-15T15:20:37.949Z,39.23
2018-04-15T15:23:06.522Z,41.70
2018-04-15T15:25:34.928Z,39.10
2018-04-15T15:28:03.313Z,38.77
2018-04-15T15:30:32.421Z,37.00
2018-04-15T15:33:00.895Z,38.70
2018-04-15T15:35:29.271Z,38.13
2018-04-15T15:37:58.187Z,38.90
2018-04-15T15:40:26.636Z,38.20
2018-04-15T15:42:54.995Z,40.27
2018-04-15T15:45:24.821Z,40.07
2018-04-15T15:47:53.754Z,39.63
2018-04-15T15:50:22.337Z,38.63
2018-04-15T15:52:51.728Z,37.60
2018-04-15T15:55:20.546Z,40.30
2018-04-15T15:57:49.008Z,38.50
2018-04-15T16:00:19.265Z,39.83
2018-04-15T16:02:48.298Z,40.50
2018-04-15T16:05:16.757Z,38.70
2018-04-15T16:07:45.116Z,42.20
2018-04-15T16:10:13.481Z,42.80
2018-04-15T16:12:41.902Z,40.17
2018-04-15T16:15:10.285Z,42.97
2018-04-15T16:17:38.666Z,42.50
2018-04-15T16:20:07.056Z,40.10
2018-04-15T16:22:37.193Z,42.27
2018-04-15T16:25:05.803Z,44.85
2018-04-15T16:27:34.347Z,40.40
2018-04-15T16:30:03.556Z,41.77
2018-04-15T16:32:32.318Z,43.33
2018-04-15T16:35:01.022Z,43.90
2018-04-15T16:37:29.762Z,43.67
2018-04-15T16:39:58.580Z,38.57
2018-04-15T16:42:27.001Z,40.87
2018-04-15T16:44:55.810Z,41.90
2018-04-15T16:47:24.328Z,40.33
2018-04-15T16:49:52.808Z,37.83
2018-04-15T16:52:22.837Z,42.00
2018-04-15T16:54:51.524Z,43.83
2018-04-15T16:57:20.335Z,41.80
2018-04-15T16:59:49.258Z,42.83
2018-04-15T17:02:18.453Z,40.47
2018-04-15T17:04:47.178Z,39.80
2018-04-15T17:07:15.732Z,37.80
2018-04-15T17:09:44.213Z,37.33
2018-04-15T17:12:12.561Z,41.57
2018-04-15T17:14:41.672Z,38.40
2018-04-15T17:17:10.040Z,35.83
2018-04-15T17:19:38.574Z,43.00
2018-04-15T17:22:07.135Z,41.00
2018-04-15T17:24:35.571Z,39.93
2018-04-15T17:27:04.225Z,39.30
2018-04-15T17:29:32.765Z,37.13
2018-04-15T17:32:01.568Z,36.90
2018-04-15T17:34:30.053Z,43.77
2018-04-15T17:36:58.867Z,42.80
2018-04-15T17:39:27.312Z,42.30
2018-04-15T17:41:55.984Z,41.80
2018-04-15T17:44:24.615Z,36.37
2018-04-15T17:46:53.182Z,41.10
2018-04-15T17:49:22.611Z,37.87
2018-04-15T17:51:52.004Z,36.20
2018-04-15T17:54:20.676Z,44.27
2018-04-15T17:56:49.825Z,37.20
2018-04-15T17:59:19.613Z,39.30
2018-04-15T18:01:48.348Z,36.10
2018-04-15T18:04:16.733Z,37.92
2018-04-15T18:06:45.193Z,38.03
2018-04-15T18:09:13.650Z,40.72
2018-04-15T18:11:42.168Z,40.83
2018-04-15T18:14:10.652Z,38.08
2018-04-15T18:16:39.239Z,37.70
2018-04-15T18:19:07.683Z,37.50
2018-04-15T18:21:36.450Z,36.78
2018-04-15T18:24:04.730Z,38.28
2018-04-15T18:26:33.403Z,39.22
2018-04-15T18:29:02.970Z,41.30
2018-04-15T18:31:31.521Z,39.20
2018-04-15T18:34:00.136Z,37.33
2018-04-15T18:36:29.341Z,39.72
2018-04-15T18:38:58.167Z,38.88
2018-04-15T18:41:26.773Z,38.65
2018-04-15T18:43:56.215Z,37.93
2018-04-15T18:46:24.694Z,38.90
2018-04-15T18:48:53.223Z,39.92
2018-04-15T18:51:21.874Z,40.25
2018-04-15T18:53:50.493Z,42.17
2018-04-15T18:56:19.010Z,46.42
2018-04-15T18:58:47.691Z,44.83
2018-04-15T19:01:16.073Z,43.70
2018-04-15T19:03:44.464Z,42.65
2018-04-15T19:06:12.965Z,44.10
2018-04-15T19:08:41.361Z,41.80
2018-04-15T19:11:09.805Z,44.80
2018-04-15T19:13:38.826Z,47.50
2018-04-15T19:16:07.383Z,50.10
2018-04-15T19:18:35.928Z,47.10
2018-04-15T19:21:04.481Z,48.60
2018-04-15T19:23:32.985Z,48.25
2018-04-15T19:26:01.448Z,49.55
2018-04-15T19:28:30.460Z,49.67
2018-04-15T19:30:59.033Z,50.67
2018-04-15T19:33:27.486Z,49.38
2018-04-15T19:35:56.874Z,50.70
2018-04-15T19:38:25.431Z,49.58
2018-04-15T19:40:54.198Z,46.33
2018-04-15T19:43:22.940Z,47.40
2018-04-15T19:45:51.426Z,52.70
2018-04-15T19:48:20.557Z,49.30
2018-04-15T19:50:49.510Z,52.92
2018-04-15T19:53:18.362Z,50.00
2018-04-15T19:55:46.733Z,49.53
2018-04-15T19:58:15.364Z,47.62
2018-04-15T20:00:43.875Z,45.75
2018-04-15T20:03:12.274Z,49.47
2018-04-15T20:05:41.507Z,48.15
2018-04-15T20:08:10.168Z,48.15
2018-04-15T20:10:38.615Z,49.85
2018-04-15T20:13:07.965Z,51.78
2018-04-15T20:15:37.363Z,46.72
2018-04-15T20:18:05.916Z,48.38
2018-04-15T20:20:35.000Z,44.88
2018-04-15T20:23:03.429Z,45.40
2018-04-15T20:25:31.927Z,45.78
2018-04-15T20:28:01.785Z,50.25
2018-04-15T20:30:30.374Z,44.00
2018-04-15T20:32:59.268Z,47.35
2018-04-15T20:35:28.578Z,44.53
2018-04-15T20:37:57.190Z,47.58
2018-04-15T20:40:25.706Z,52.67
2018-04-15T20:42:55.278Z,43.85
2018-04-15T20:45:23.721Z,49.50
2018-04-15T20:47:52.239Z,47.75
2018-04-15T20:50:22.064Z,47.45
2018-04-15T20:52:50.928Z,48.08
2018-04-15T20:55:19.691Z,44.28
2018-04-15T20:57:48.685Z,44.85
2018-04-15T21:00:17.146Z,42.88
2018-04-15T21:02:45.594Z,45.38
2018-04-15T21:05:15.075Z,46.88
2018-04-15T21:07:43.477Z,55.50
2018-04-15T21:10:11.894Z,47.60
2018-04-15T21:12:40.503Z,52.83
2018-04-15T21:15:08.870Z,48.47
2018-04-15T21:17:37.285Z,53.20
2018-04-15T21:20:05.856Z,50.80
2018-04-15T21:22:34.419Z,55.50
2018-04-15T21:25:02.824Z,61.33
2018-04-15T21:27:32.538Z,57.80
2018-04-15T21:30:01.237Z,59.72
2018-04-15T21:32:29.676Z,59.55
2018-04-15T21:34:58.356Z,60.53
2018-04-15T21:37:26.797Z,77.05
2018-04-15T21:39:55.312Z,60.12
2018-04-15T21:42:23.998Z,59.67
2018-04-15T21:44:52.504Z,58.63
2018-04-15T21:47:21.086Z,58.87
2018-04-15T21:49:49.712Z,56.00
2018-04-15T21:52:18.194Z,56.88
2018-04-15T21:54:46.716Z,55.55
2018-04-15T21:57:16.033Z,58.95
2018-04-15T21:59:44.396Z,55.30
2018-04-15T22:02:12.773Z,53.80
2018-04-15T22:04:41.767Z,53.22
2018-04-15T22:07:10.345Z,56.33
2018-04-15T22:09:38.820Z,57.47
2018-04-15T22:12:17.140Z,57.53
2018-04-15T22:14:45.557Z,53.35
2018-04-15T22:17:13.898Z,62.42
2018-04-15T22:19:43.085Z,60.47
2018-04-15T22:22:11.459Z,61.17
2018-04-15T22:24:39.918Z,60.83
2018-04-15T22:27:08.308Z,71.78
2018-04-15T22:29:36.660Z,62.47
2018-04-15T22:32:05.132Z,58.65
2018-04-15T22:34:33.652Z,62.08
2018-04-15T22:37:02.059Z,59.88
2018-04-15T22:39:30.571Z,57.47
2018-04-15T22:42:00.461Z,59.17
2018-04-15T22:44:28.941Z,65.93
2018-04-15T22:46:57.362Z,59.50
2018-04-15T22:49:26.838Z,84.97
2018-04-15T22:51:55.223Z,68.87
2018-04-15T22:54:23.612Z,60.80
2018-04-15T22:56:52.139Z,62.40
2018-04-15T22:59:20.772Z,67.37
2018-04-15T23:01:49.321Z,73.15
2018-04-15T23:04:33.212Z,72.62
2018-04-15T23:07:02.053Z,61.88
2018-04-15T23:09:30.485Z,74.12
2018-04-15T23:11:59.018Z,57.65
2018-04-15T23:14:27.502Z,55.15
2018-04-15T23:16:55.898Z,54.63
2018-04-15T23:19:24.440Z,56.72
2018-04-15T23:21:53.009Z,53.17
2018-04-15T23:24:21.711Z,55.92
2018-04-15T23:26:50.216Z,60.08
2018-04-15T23:29:18.681Z,57.67
2018-04-15T23:31:47.116Z,56.58
2018-04-15T23:34:15.909Z,56.28
2018-04-15T23:36:44.265Z,53.65
2018-04-15T23:39:12.636Z,52.72
2018-04-15T23:41:41.077Z,62.40
2018-04-15T23:44:09.467Z,53.13
2018-04-15T23:46:37.847Z,55.97
2018-04-15T23:49:07.691Z,59.10
2018-04-15T23:51:36.043Z,61.60
2018-04-15T23:54:04.413Z,53.05
2018-04-15T23:56:33.206Z,72.93
2018-04-15T23:59:01.611Z,98.50
